Etusivu
METAR-TAF:

METAR-TAF

Lentoasemat :

Talara, Peru

Leveyspiiri: 04-34S, Pituuspiiri: 081-15W, korkeus merenpinnasta: 85 m

Tämänhetkinen sää

Tämä raportti tehtiin 1 tunti ja 28 minuuttia sitten, kello 02.00 UTC
Tuuli 12 kn kaakosta
Lämpötila 23°C
Kosteus 78%
Ilmanpaine 1012 hPa
Näkyvyys 10 km tai enemmän
ei pilviä alle 1500 m:ssä eikä cumulonimbus-pilviä

METAR: SPYL 240200Z 13012KT CAVOK 23/19 Q1012 RMK PP000

Aika: 22:28 (03:28 UTC)

Sääennuste

Tämä raportti tehtiin 4 tuntia ja 28 minuuttia sitten, kello 23.00 UTC
Ennuste voimassa 24. päivästä klo 00 UTC - 24. päivään klo 24 UTC
Tuuli 12 kn etelästä
Näkyvyys 10 km tai enemmän
ei pilviä alle 1500 m:ssä eikä cumulonimbus-pilviä
Tulossa
24. päivästä klo 02 UTC - 24. päivään klo 04 UTC
Tuuli 8 kn kaakosta
Tulossa
24. päivästä klo 10 UTC - 24. päivään klo 13 UTC
Tuuli 15 kn etelästä/lounaasta

TAF: SPYL 232300Z 2400/2424 19012KT CAVOK TX31/2419Z TN19/2411Z BECMG 2402/2404 13008KT BECMG 2410/2413 20015KT

Säähavainnot ja -ennusteet yli 4000 lentoasemalta (METAR- ja TAF-raportit).

Käytössä olevat sääasemat on merkitty karttaan keltaisilla ja punaisilla pisteillä.

Aseta hiiri pisteen päälle nähdäksesi sääaseman nimen.

Klikkaa sitten nähdäksesi säähavainnot ja -ennusteet.

Kartan vaihtaminen: klikkaa mustalla rastilla varustettuja vihreitä pisteitä, niin voit zoomata sisään; viivalla varustettua vihreää pistettä, niin voit zoomata ulos tai vihreitä nuolia, niin pääset viereisille kartoille.


METAR-TAF: